This is the latest recevied weather packets stored in our database for station/object DB0TGO-13. If no packets are shown the sender has not sent any weather packets the latest 10 day(s).
| Time | Temp. | Humidity | Pressure | Rain* | Wind** | Luminosity | Snow |
|---|---|---|---|---|---|---|---|
| 1777607102 | 5.56° C | 82% | 1023.8 hPa | - | - | - | - |
| 1777606202 | 5.56° C | 82% | 1023.8 hPa | - | - | - | - |
| 1777605304 | 7.22° C | 77% | 1023.8 hPa | - | - | - | - |
| 1777604404 | 7.22° C | 77% | 1023.8 hPa | - | - | - | - |
| 1777581902 | 13.89° C | 50% | 1023.5 hPa | - | - | - | - |
| 1777581002 | 13.89° C | 50% | 1023.5 hPa | - | - | - | - |
| 1777580102 | 13.89° C | 49% | 1023.4 hPa | - | - | - | - |
| 1777579202 | 13.89° C | 49% | 1023.4 hPa | - | - | - | - |
| 1777578302 | 12.78° C | 51% | 1023.4 hPa | - | - | - | - |
| 1777577402 | 12.78° C | 51% | 1023.4 hPa | - | - | - | - |
| 1777576502 | 14.44° C | 48% | 1023.2 hPa | - | - | - | - |
| 1777575602 | 14.44° C | 48% | 1023.2 hPa | - | - | - | - |
| 1777574702 | 16.11° C | 43% | 1023 hPa | - | - | - | - |
| 1777573803 | 16.11° C | 43% | 1023 hPa | - | - | - | - |
| 1777572902 | 16.67° C | 43% | 1023.1 hPa | - | - | - | - |
| 1777572002 | 16.67° C | 43% | 1023.1 hPa | - | - | - | - |
| 1777571102 | 17.78° C | 38% | 1023.2 hPa | - | - | - | - |
| 1777570202 | 17.78° C | 38% | 1023.2 hPa | - | - | - | - |
| 1777569302 | 18.33° C | 39% | 1023.3 hPa | - | - | - | - |
| 1777568402 | 18.33° C | 39% | 1023.3 hPa | - | - | - | - |
| 1777567503 | 18.33° C | 38% | 1023.3 hPa | - | - | - | - |
| 1777566602 | 18.33° C | 38% | 1023.3 hPa | - | - | - | - |
| 1777565702 | 18.89° C | 36% | 1023.4 hPa | - | - | - | - |
| 1777564803 | 18.89° C | 36% | 1023.4 hPa | - | - | - | - |
| 1777563902 | 17.22° C | 41% | 1023.7 hPa | - | - | - | - |
* Rain since midnight (hover to see other rain measurements)
** Current wind speed in m/s (hover to see current wind gust speed)